Terminal Aerodrome Forecast
Issued by NWS Central Illinois

Home | Current Version | Previous Version | Text Only | Print | Product List | Glossary On
Versions: 1 2 3 4 5 6 7 8 9 10 11 12 13 14 15 16 17 18 19 20 21 22 23 24 25 26 27 28 29 30 31 32 33 34 35 36 37 38 39 40 41
219
FTUS43 KILX 220059 AAA
TAFPIA
TAF AMD
KPIA 220059Z 2201/2224 04007KT P6SM SCT015
     FM221100 05010KT P6SM -FZRASN OVC015
     FM221500 06010KT 4SM -RA BR OVC015
     FM221900 09009KT P6SM OVC015=

USA.gov is the U.S. government's official web portal to all federal, state and local government web resources and services.